Time;durP1;ratioP1;P1;durP2;ratioP2;P2;SDS_P1;SDS_P2;PMS_P1;PMS_P2;Temp;Humidity;BMP_temperature;BMP_pressure;BME280_temperature;BME280_humidity;BME280_pressure;Samples;Min_cycle;Max_cycle;Signal;HPM_P1;HPM_P2
2022/05/20 00:02:07;;;;;;;6.25;0.93;;;18.30;60.00;;;;;;5075784;28;20096;-81
2022/05/20 00:04:33;;;;;;;5.43;0.95;;;18.20;60.10;;;;;;5075462;28;20023;-81
2022/05/20 00:06:59;;;;;;;5.00;1.20;;;18.20;60.60;;;;;;5075798;28;20084;-81
2022/05/20 00:09:24;;;;;;;6.03;0.93;;;18.00;60.80;;;;;;5075487;28;20440;-81
2022/05/20 00:11:50;;;;;;;6.88;1.00;;;18.10;60.60;;;;;;5075274;28;20055;-80
2022/05/20 00:14:16;;;;;;;4.90;0.98;;;18.00;60.80;;;;;;5087837;28;20024;-81
2022/05/20 00:16:42;;;;;;;4.63;1.10;;;18.00;60.70;;;;;;5095493;28;20479;-80
2022/05/20 00:19:09;;;;;;;9.50;1.58;;;18.00;60.70;;;;;;5081339;28;20108;-81
2022/05/20 00:21:36;;;;;;;2.65;1.02;;;18.00;60.90;;;;;;5074160;28;20102;-81
2022/05/20 00:24:03;;;;;;;4.10;1.00;;;18.00;60.90;;;;;;5075476;28;20024;-80
2022/05/20 00:26:29;;;;;;;4.03;1.00;;;18.00;60.80;;;;;;5075234;28;20032;-81
2022/05/20 00:28:55;;;;;;;4.53;1.00;;;17.90;60.60;;;;;;5075477;28;20070;-81
2022/05/20 00:31:24;;;;;;;3.92;1.02;;;17.90;60.90;;;;;;5075139;28;20025;-81
2022/05/20 00:33:49;;;;;;;3.40;0.98;;;17.90;60.80;;;;;;5072613;28;20040;-81
2022/05/20 00:36:16;;;;;;;6.47;1.40;;;17.90;60.80;;;;;;5074419;28;20029;-81
2022/05/20 00:38:41;;;;;;;8.60;1.48;;;17.90;60.80;;;;;;5074525;28;20048;-81
2022/05/20 00:41:09;;;;;;;3.95;1.40;;;17.80;60.80;;;;;;5074982;28;20573;-81
2022/05/20 00:43:40;;;;;;;4.85;0.95;;;17.80;61.10;;;;;;5074833;28;20052;-81
2022/05/20 00:46:13;;;;;;;6.95;1.20;;;17.80;61.00;;;;;;5074754;28;20033;-80
2022/05/20 00:48:39;;;;;;;4.60;1.00;;;17.80;60.90;;;;;;5073621;28;20020;-81
2022/05/20 00:51:07;;;;;;;4.20;1.00;;;17.80;61.10;;;;;;5074906;28;20051;-81
2022/05/20 00:53:44;;;;;;;6.07;1.17;;;17.70;61.30;;;;;;5075504;28;20062;-81
2022/05/20 00:56:14;;;;;;;4.07;1.25;;;17.70;61.20;;;;;;5072192;28;20029;-81
2022/05/20 00:58:41;;;;;;;7.40;1.38;;;17.70;61.00;;;;;;5075134;28;20020;-81
2022/05/20 01:01:07;;;;;;;5.78;1.27;;;17.70;61.10;;;;;;5072629;28;20029;-81
2022/05/20 01:03:33;;;;;;;2.67;0.70;;;17.70;61.00;;;;;;5070730;28;20021;-81
2022/05/20 01:05:59;;;;;;;8.25;1.40;;;17.70;61.20;;;;;;5054386;28;20021;-81
2022/05/20 01:08:33;;;;;;;7.47;1.50;;;17.60;61.10;;;;;;5071595;28;20109;-81
2022/05/20 01:10:59;;;;;;;5.78;0.82;;;17.60;61.40;;;;;;5074806;28;20024;-80
2022/05/20 01:13:27;;;;;;;7.82;1.52;;;17.40;61.50;;;;;;5079186;28;20062;-81
2022/05/20 01:15:54;;;;;;;3.10;1.05;;;17.40;61.50;;;;;;5077699;28;20029;-80
2022/05/20 01:18:20;;;;;;;4.90;1.08;;;17.40;61.80;;;;;;5074111;28;20036;-81
2022/05/20 01:20:49;;;;;;;8.20;1.17;;;17.40;61.80;;;;;;5074937;28;20044;-81
2022/05/20 01:23:16;;;;;;;4.53;0.82;;;17.40;62.00;;;;;;5073420;28;20142;-81
2022/05/20 01:25:47;;;;;;;6.90;1.60;;;17.30;62.20;;;;;;5074156;28;20021;-80
2022/05/20 01:28:14;;;;;;;6.25;1.02;;;17.30;62.60;;;;;;5074204;28;20427;-81
2022/05/20 01:30:46;;;;;;;4.32;1.17;;;17.30;62.70;;;;;;5073301;28;20650;-81
2022/05/20 01:33:25;;;;;;;3.38;1.00;;;17.30;62.20;;;;;;5073947;28;20041;-81
2022/05/20 01:35:51;;;;;;;2.90;0.90;;;17.30;62.70;;;;;;5073820;28;20111;-80
2022/05/20 01:38:17;;;;;;;3.72;1.23;;;17.30;62.80;;;;;;5073795;28;20093;-81
2022/05/20 01:40:49;;;;;;;4.78;1.00;;;17.30;62.90;;;;;;5073624;28;20016;-80
2022/05/20 01:43:33;;;;;;;3.80;1.23;;;17.20;63.00;;;;;;5072834;28;20024;-80
2022/05/20 01:46:25;;;;;;;3.22;0.90;;;17.20;63.20;;;;;;5073025;28;20402;-80
2022/05/20 01:49:17;;;;;;;6.53;1.23;;;17.20;63.40;;;;;;5074253;28;20039;-80
2022/05/20 01:52:08;;;;;;;2.95;1.00;;;17.10;63.70;;;;;;5064385;28;20056;-81
2022/05/20 01:54:56;;;;;;;5.70;1.15;;;17.00;64.00;;;;;;5072363;28;20024;-80
2022/05/20 01:57:37;;;;;;;4.43;1.08;;;17.00;64.10;;;;;;5073469;28;20042;-81
2022/05/20 02:00:14;;;;;;;4.93;1.20;;;17.10;63.80;;;;;;5073758;28;20062;-80
2022/05/20 02:02:45;;;;;;;5.45;1.02;;;17.00;64.50;;;;;;5072052;28;20048;-80
2022/05/20 02:05:48;;;;;;;6.82;1.85;;;17.00;64.80;;;;;;5071208;28;20025;-80
2022/05/20 02:08:27;;;;;;;6.90;1.45;;;17.00;64.70;;;;;;5072938;28;20123;-81
2022/05/20 02:11:20;;;;;;;2.28;1.10;;;17.10;64.70;;;;;;5073110;28;20406;-80
2022/05/20 02:14:19;;;;;;;2.72;1.20;;;17.20;64.30;;;;;;5081757;28;20027;-80
2022/05/20 02:16:53;;;;;;;7.93;2.00;;;17.20;64.70;;;;;;5084543;28;20071;-80
2022/05/20 02:19:31;;;;;;;5.47;1.33;;;17.30;64.70;;;;;;5073628;28;20094;-80
2022/05/20 02:22:00;;;;;;;6.63;1.42;;;17.30;64.50;;;;;;5073149;28;20075;-81
2022/05/20 02:24:28;;;;;;;5.45;1.55;;;17.30;64.70;;;;;;5073152;28;20029;-80
2022/05/20 02:27:00;;;;;;;4.70;1.20;;;17.30;64.80;;;;;;5072783;28;20047;-80
2022/05/20 02:30:02;;;;;;;6.78;1.38;;;17.30;64.90;;;;;;5073619;28;20772;-80
2022/05/20 02:32:46;;;;;;;9.68;1.90;;;17.40;64.90;;;;;;5073099;28;20471;-81
2022/05/20 02:35:12;;;;;;;6.78;1.52;;;17.40;65.10;;;;;;5072472;28;20028;-80
2022/05/20 02:37:39;;;;;;;4.32;1.25;;;17.40;65.30;;;;;;5073090;28;20054;-80
2022/05/20 02:40:08;;;;;;;6.45;1.05;;;17.50;64.80;;;;;;5073227;28;20040;-80
2022/05/20 02:42:33;;;;;;;4.50;1.20;;;17.50;64.70;;;;;;5073028;28;20658;-81
2022/05/20 02:45:00;;;;;;;6.32;1.35;;;17.40;64.50;;;;;;5073040;28;20108;-81
2022/05/20 02:47:31;;;;;;;9.23;1.10;;;17.40;64.60;;;;;;5072861;28;20016;-81
2022/05/20 02:49:57;;;;;;;5.35;1.02;;;17.40;64.70;;;;;;5063946;28;20698;-81
2022/05/20 02:52:23;;;;;;;6.00;1.63;;;17.40;64.60;;;;;;5069607;28;20024;-81
2022/05/20 02:54:49;;;;;;;6.13;1.17;;;17.30;64.70;;;;;;5070782;28;20657;-81
2022/05/20 02:57:14;;;;;;;5.80;1.30;;;17.40;64.80;;;;;;5073852;28;20033;-80
2022/05/20 03:05:13;;;;;;;2.72;0.80;;;17.30;64.80;;;;;;5074309;28;20524;-80
2022/05/20 03:07:38;;;;;;;3.50;1.20;;;17.30;65.20;;;;;;5076484;28;20034;-80
2022/05/20 03:10:04;;;;;;;5.63;1.00;;;17.30;65.00;;;;;;5076451;28;20033;-80
2022/05/20 03:12:30;;;;;;;7.28;1.55;;;17.30;65.20;;;;;;5075405;28;20392;-80
2022/05/20 03:14:56;;;;;;;3.80;1.00;;;17.30;64.90;;;;;;5093277;28;20067;-80
2022/05/20 03:17:21;;;;;;;3.28;1.30;;;17.30;65.60;;;;;;5076351;28;20380;-81
2022/05/20 03:19:50;;;;;;;5.22;1.60;;;17.30;65.20;;;;;;5076846;28;20044;-79
2022/05/20 03:22:15;;;;;;;5.47;1.15;;;17.30;65.10;;;;;;5076293;28;20024;-81
2022/05/20 03:24:42;;;;;;;5.45;1.40;;;17.30;65.00;;;;;;5075260;28;20024;-80
2022/05/20 03:27:07;;;;;;;3.95;1.02;;;17.40;65.00;;;;;;5076698;28;20025;-80
2022/05/20 03:29:33;;;;;;;7.63;1.38;;;17.40;65.30;;;;;;5076135;28;20028;-80
2022/05/20 03:31:59;;;;;;;5.28;1.90;;;17.40;65.10;;;;;;5076310;28;20124;-80
2022/05/20 03:34:25;;;;;;;7.28;1.30;;;17.30;65.40;;;;;;5075948;28;20025;-80
2022/05/20 03:36:50;;;;;;;5.57;1.33;;;17.30;65.60;;;;;;5075862;28;20086;-80
2022/05/20 03:39:19;;;;;;;10.98;1.60;;;17.30;65.60;;;;;;5076014;28;20102;-81
2022/05/20 03:41:46;;;;;;;4.85;1.20;;;17.30;65.70;;;;;;5074597;28;20046;-80
2022/05/20 03:44:14;;;;;;;4.60;1.42;;;17.30;65.70;;;;;;5075895;28;20024;-81
2022/05/20 03:46:48;;;;;;;7.00;1.20;;;17.20;65.80;;;;;;5075985;28;20109;-80
2022/05/20 03:49:15;;;;;;;8.27;1.45;;;17.20;65.90;;;;;;5056660;28;20508;-80
2022/05/20 03:51:44;;;;;;;9.23;2.03;;;17.30;65.50;;;;;;5055994;28;20162;-81
2022/05/20 03:54:11;;;;;;;5.18;1.40;;;17.30;65.50;;;;;;5074606;28;20020;-80
2022/05/20 03:56:38;;;;;;;8.32;1.35;;;17.30;65.90;;;;;;5075085;28;20060;-81
2022/05/20 03:59:04;;;;;;;6.85;1.25;;;17.30;66.10;;;;;;5073771;28;20119;-81
2022/05/20 04:04:17;;;;;;;7.32;1.45;;;17.00;67.00;;;;;;5075272;28;20043;-80
2022/05/20 04:06:43;;;;;;;5.25;1.48;;;17.10;67.10;;;;;;5076004;28;20135;-81
2022/05/20 04:09:09;;;;;;;9.15;1.55;;;17.00;67.70;;;;;;5075127;28;20102;-80
2022/05/20 04:11:34;;;;;;;6.13;1.65;;;17.00;67.90;;;;;;5076212;28;20597;-80
2022/05/20 04:14:01;;;;;;;3.58;1.60;;;17.00;68.20;;;;;;5085668;28;20028;-80
2022/05/20 04:16:26;;;;;;;2.90;1.20;;;17.00;68.60;;;;;;5076618;28;20021;-80
2022/05/20 04:18:52;;;;;;;7.05;1.70;;;17.00;68.30;;;;;;5074693;28;20104;-79
2022/05/20 04:21:18;;;;;;;7.82;1.63;;;17.00;68.60;;;;;;5075364;28;20053;-82
2022/05/20 04:23:44;;;;;;;3.47;1.17;;;17.10;68.80;;;;;;5078597;28;20047;-79
2022/05/20 04:26:11;;;;;;;6.72;1.73;;;17.10;68.60;;;;;;5076142;28;20024;-81
2022/05/20 04:28:36;;;;;;;6.05;1.63;;;17.10;68.20;;;;;;5065217;28;20487;-81
2022/05/20 04:31:05;;;;;;;4.47;1.73;;;17.20;67.60;;;;;;5072421;28;20115;-81
2022/05/20 04:33:31;;;;;;;3.95;1.65;;;17.20;67.60;;;;;;5055083;28;20040;-78
2022/05/20 04:35:57;;;;;;;9.70;1.58;;;17.20;67.60;;;;;;5054644;28;20084;-79
2022/05/20 04:38:23;;;;;;;4.47;1.30;;;17.30;68.30;;;;;;5066902;28;20116;-78
2022/05/20 04:46:56;;;;;;;4.57;1.20;;;17.30;68.10;;;;;;5074601;28;20051;-78
2022/05/20 04:49:06;;;;;;;4.80;1.85;;;17.30;68.10;;;;;;5055077;28;20043;-78
2022/05/20 04:51:32;;;;;;;4.32;2.05;;;17.30;68.40;;;;;;5053556;28;20036;-78
2022/05/20 04:56:42;;;;;;;3.95;1.60;;;17.30;69.00;;;;;;5070494;28;20059;-83
2022/05/20 04:59:08;;;;;;;3.58;1.85;;;17.40;69.40;;;;;;5073755;28;20508;-82
2022/05/20 05:01:34;;;;;;;3.78;2.00;;;17.40;69.00;;;;;;5074141;28;20025;-81
2022/05/20 05:03:59;;;;;;;6.28;1.60;;;17.40;69.20;;;;;;5064677;28;20029;-81
2022/05/20 05:06:25;;;;;;;6.80;1.85;;;17.30;69.40;;;;;;5074095;28;20678;-79
2022/05/20 05:08:51;;;;;;;2.85;1.60;;;17.30;69.60;;;;;;5074263;28;20665;-79
2022/05/20 05:11:16;;;;;;;3.00;1.52;;;17.30;69.50;;;;;;5072172;28;20100;-80
2022/05/20 05:13:42;;;;;;;5.55;1.70;;;17.40;68.80;;;;;;5080065;28;20060;-82
2022/05/20 05:16:08;;;;;;;6.75;1.73;;;17.40;69.00;;;;;;5078090;28;20055;-84
2022/05/20 05:18:36;;;;;;;5.00;1.75;;;17.40;69.40;;;;;;5073723;28;20032;-80
2022/05/20 05:21:02;;;;;;;4.22;1.63;;;17.40;69.90;;;;;;5066902;28;20032;-79
2022/05/20 05:23:28;;;;;;;4.70;1.65;;;17.40;69.70;;;;;;5069947;28;20406;-82
2022/05/20 05:25:54;;;;;;;8.50;2.10;;;17.40;69.80;;;;;;5064025;28;20032;-82
2022/05/20 05:28:20;;;;;;;3.35;1.73;;;17.40;69.90;;;;;;5064724;28;20572;-82
2022/05/20 05:30:47;;;;;;;7.55;1.75;;;17.50;69.60;;;;;;5063326;28;20031;-80
2022/05/20 05:33:13;;;;;;;5.57;1.50;;;17.50;69.50;;;;;;5073181;28;20036;-80
2022/05/20 05:35:39;;;;;;;7.75;1.88;;;17.60;69.30;;;;;;5069329;28;20033;-81
2022/05/20 05:38:05;;;;;;;4.68;1.85;;;17.60;69.10;;;;;;5062641;28;20078;-80
2022/05/20 05:40:32;;;;;;;10.07;2.20;;;17.60;69.50;;;;;;5065405;28;20052;-81
2022/05/20 05:42:59;;;;;;;5.32;1.83;;;17.70;69.40;;;;;;5062629;28;20463;-80
2022/05/20 05:45:27;;;;;;;4.43;1.75;;;17.60;69.60;;;;;;5064414;28;20016;-81
2022/05/20 05:48:02;;;;;;;10.40;2.42;;;17.70;69.60;;;;;;5062069;28;20025;-81
2022/05/20 05:50:29;;;;;;;5.28;2.35;;;17.80;69.40;;;;;;5060261;28;20483;-80
2022/05/20 05:53:02;;;;;;;6.15;2.40;;;17.80;69.40;;;;;;5053644;28;20121;-83
2022/05/20 05:55:28;;;;;;;4.97;1.95;;;17.80;69.20;;;;;;5059813;28;20074;-80
2022/05/20 05:57:54;;;;;;;6.97;1.85;;;17.90;68.70;;;;;;5070115;28;20403;-79
2022/05/20 06:00:20;;;;;;;8.90;2.00;;;18.00;69.10;;;;;;5073163;28;20028;-79
2022/05/20 06:02:47;;;;;;;7.10;1.85;;;17.90;69.70;;;;;;5074275;28;20036;-79
2022/05/20 06:05:13;;;;;;;7.43;2.42;;;17.80;69.90;;;;;;5083238;28;20109;-79
2022/05/20 06:07:38;;;;;;;5.63;2.20;;;17.80;70.00;;;;;;5072842;28;20066;-78
2022/05/20 06:10:04;;;;;;;5.50;2.28;;;17.90;69.80;;;;;;5080453;28;20032;-79
2022/05/20 06:12:31;;;;;;;4.93;2.45;;;18.00;69.40;;;;;;5069972;28;20025;-79
2022/05/20 06:14:57;;;;;;;6.45;2.30;;;18.10;69.00;;;;;;5068514;28;20115;-79
2022/05/20 06:17:23;;;;;;;7.82;2.13;;;18.10;69.30;;;;;;5078329;28;20032;-79
2022/05/20 06:19:49;;;;;;;6.57;2.40;;;18.10;68.90;;;;;;5071938;28;20041;-79
2022/05/20 06:22:14;;;;;;;7.63;2.50;;;18.10;69.40;;;;;;5061503;28;20036;-79
2022/05/20 06:24:40;;;;;;;6.22;2.38;;;18.20;69.40;;;;;;5072279;28;20039;-79
2022/05/20 06:27:06;;;;;;;5.50;2.13;;;18.30;69.40;;;;;;5072740;28;20028;-79
2022/05/20 06:29:31;;;;;;;6.68;2.75;;;18.20;69.40;;;;;;5072342;28;20515;-79
2022/05/20 06:31:57;;;;;;;11.13;2.13;;;18.30;69.80;;;;;;5073396;28;20036;-79
2022/05/20 06:34:23;;;;;;;7.88;3.00;;;18.30;69.90;;;;;;5072365;28;20103;-79
2022/05/20 06:39:51;;;;;;;5.13;2.17;;;18.40;70.40;;;;;;5075756;28;20038;-79
2022/05/20 06:42:19;;;;;;;4.25;1.90;;;18.40;70.30;;;;;;5076538;28;20029;-79
2022/05/20 06:44:45;;;;;;;7.05;2.33;;;18.60;69.80;;;;;;5076046;28;20031;-78
2022/05/20 06:47:12;;;;;;;6.07;2.35;;;18.70;69.60;;;;;;5076543;28;20032;-80
2022/05/20 06:49:37;;;;;;;7.65;2.28;;;18.70;69.30;;;;;;5076802;28;20027;-82
2022/05/20 06:52:03;;;;;;;5.20;1.98;;;18.70;69.20;;;;;;5075293;28;20024;-78
2022/05/20 06:54:29;;;;;;;6.93;2.33;;;18.60;69.40;;;;;;5067875;28;20029;-78
2022/05/20 06:56:55;;;;;;;9.02;2.60;;;18.50;69.70;;;;;;5067265;28;20076;-78
2022/05/20 06:59:21;;;;;;;7.45;3.00;;;18.50;69.50;;;;;;5070186;28;20025;-78
2022/05/20 07:01:46;;;;;;;9.00;2.20;;;18.60;69.60;;;;;;5067265;28;20111;-78
2022/05/20 07:04:12;;;;;;;9.63;2.70;;;18.80;69.10;;;;;;5063029;28;20017;-78
2022/05/20 07:11:42;;;;;;;13.02;2.20;;;19.70;67.10;;;;;;5459803;23;20081;-85
2022/05/20 07:14:07;;;;;;;5.97;2.60;;;19.70;66.80;;;;;;5027654;28;20123;-80
2022/05/20 07:16:33;;;;;;;6.80;2.33;;;19.60;67.10;;;;;;5052497;28;20029;-79
2022/05/20 07:18:59;;;;;;;6.93;2.03;;;19.60;66.80;;;;;;5055995;28;20032;-79
2022/05/20 07:21:25;;;;;;;6.50;2.30;;;19.50;67.70;;;;;;5046468;28;20055;-79
2022/05/20 07:23:51;;;;;;;6.40;2.50;;;19.50;67.50;;;;;;5025854;28;20033;-78
2022/05/20 07:26:17;;;;;;;7.78;2.15;;;19.50;67.70;;;;;;5036997;28;20466;-79
2022/05/20 07:28:44;;;;;;;10.77;2.33;;;19.30;67.70;;;;;;5037101;28;20037;-79
2022/05/20 07:31:10;;;;;;;8.55;2.58;;;19.30;67.80;;;;;;5045563;28;20040;-79
2022/05/20 07:33:37;;;;;;;5.13;2.45;;;19.30;67.50;;;;;;5035614;28;20124;-79
2022/05/20 07:36:04;;;;;;;7.25;2.15;;;19.40;68.00;;;;;;5049999;28;20212;-79
2022/05/20 07:38:29;;;;;;;9.45;3.10;;;19.60;67.80;;;;;;5065525;28;20071;-79
2022/05/20 07:40:56;;;;;;;5.85;2.22;;;19.60;67.00;;;;;;5051014;28;20057;-79
2022/05/20 07:43:24;;;;;;;7.82;2.53;;;19.60;67.60;;;;;;5053280;28;20036;-79
2022/05/20 07:45:50;;;;;;;9.70;2.50;;;19.50;67.40;;;;;;5055184;28;20060;-79
2022/05/20 07:48:17;;;;;;;6.82;2.03;;;19.50;67.70;;;;;;5055766;28;20082;-80
2022/05/20 07:50:45;;;;;;;8.68;2.67;;;19.40;68.10;;;;;;5032786;28;20052;-79
2022/05/20 07:53:33;;;;;;;8.63;2.30;;;19.40;68.00;;;;;;5034270;28;20025;-80
2022/05/20 07:56:14;;;;;;;6.93;2.45;;;19.60;67.80;;;;;;5035061;28;20042;-79
2022/05/20 07:59:14;;;;;;;10.25;2.75;;;19.80;67.70;;;;;;5033292;28;20037;-79
2022/05/20 08:01:44;;;;;;;7.22;3.13;;;19.80;67.40;;;;;;5028856;28;20040;-79
2022/05/20 08:07:03;;;;;;;7.85;2.83;;;19.50;68.50;;;;;;5035654;28;20048;-79
2022/05/20 08:09:29;;;;;;;9.82;3.58;;;19.30;69.10;;;;;;5035776;28;20029;-79
2022/05/20 08:12:00;;;;;;;11.70;4.90;;;19.30;69.20;;;;;;5047669;28;20044;-79
2022/05/20 08:14:27;;;;;;;7.70;4.38;;;19.20;69.40;;;;;;5037204;28;20032;-79
2022/05/20 08:16:53;;;;;;;11.48;4.35;;;19.30;70.00;;;;;;5035154;28;20486;-79
2022/05/20 08:19:19;;;;;;;8.35;4.78;;;19.20;70.50;;;;;;5035248;28;20029;-78
2022/05/20 08:21:45;;;;;;;12.93;5.20;;;19.20;70.90;;;;;;5051207;28;20052;-78
2022/05/20 08:24:10;;;;;;;17.45;5.55;;;19.10;71.30;;;;;;5054743;28;20013;-79
2022/05/20 08:26:36;;;;;;;13.82;4.95;;;19.00;71.60;;;;;;5047371;28;20145;-78
2022/05/20 08:29:03;;;;;;;10.95;4.78;;;19.10;71.50;;;;;;5048694;28;20052;-79
2022/05/20 08:31:29;;;;;;;12.20;5.47;;;19.00;72.10;;;;;;5040603;28;20057;-79
2022/05/20 08:33:55;;;;;;;11.10;4.50;;;19.10;72.00;;;;;;5035583;28;20025;-79
2022/05/20 08:36:21;;;;;;;9.90;5.07;;;19.10;71.90;;;;;;5034791;28;20095;-79
2022/05/20 08:38:47;;;;;;;9.18;5.22;;;19.00;72.10;;;;;;5035267;28;20021;-79
2022/05/20 08:41:23;;;;;;;9.25;4.43;;;19.00;72.60;;;;;;5053114;28;20088;-79
2022/05/20 08:43:50;;;;;;;9.13;3.75;;;19.10;72.30;;;;;;5040741;28;20025;-79
2022/05/20 08:46:18;;;;;;;9.48;3.40;;;19.10;71.50;;;;;;5028703;28;20454;-79
2022/05/20 08:48:46;;;;;;;8.80;3.00;;;19.00;71.60;;;;;;5034734;28;20500;-79
2022/05/20 08:51:12;;;;;;;9.23;3.60;;;18.80;71.40;;;;;;5034667;28;20044;-79
2022/05/20 08:53:45;;;;;;;13.80;3.25;;;18.80;71.30;;;;;;5034645;28;20510;-79
2022/05/20 08:56:14;;;;;;;5.78;2.70;;;18.80;71.70;;;;;;5043342;28;20037;-79
2022/05/20 08:58:59;;;;;;;8.90;3.22;;;18.80;71.70;;;;;;5046112;28;20594;-79
2022/05/20 09:01:50;;;;;;;7.88;2.90;;;19.00;71.10;;;;;;5053883;28;20037;-79
2022/05/20 09:04:19;;;;;;;6.20;2.88;;;19.30;70.40;;;;;;5046790;28;20117;-80
2022/05/20 09:07:02;;;;;;;8.23;2.97;;;19.60;69.90;;;;;;5034361;28;20033;-79
2022/05/20 09:09:39;;;;;;;6.05;3.05;;;19.70;69.10;;;;;;5034473;28;20055;-79
2022/05/20 09:12:05;;;;;;;6.68;2.42;;;19.80;69.30;;;;;;5038090;28;20419;-79
2022/05/20 09:17:21;;;;;;;10.38;3.17;;;20.20;68.60;;;;;;5034029;28;20454;-79
2022/05/20 09:20:06;;;;;;;7.40;2.38;;;20.50;67.60;;;;;;5038590;28;20033;-79
2022/05/20 09:22:38;;;;;;;5.95;1.90;;;21.80;65.00;;;;;;5043814;28;20593;-79
2022/05/20 09:25:26;;;;;;;6.03;1.70;;;21.90;62.80;;;;;;5019004;28;20033;-80
2022/05/20 09:28:12;;;;;;;6.50;1.48;;;22.00;62.60;;;;;;5016106;28;20098;-79
2022/05/20 09:30:39;;;;;;;9.00;1.90;;;21.70;63.60;;;;;;5034220;28;20069;-79
2022/05/20 09:33:11;;;;;;;7.78;1.92;;;21.50;63.80;;;;;;5033802;28;20478;-79
2022/05/20 09:35:37;;;;;;;7.30;2.08;;;21.30;64.00;;;;;;5033815;28;20025;-79
2022/05/20 09:38:34;;;;;;;6.90;1.80;;;21.40;63.30;;;;;;5033909;28;20109;-79
2022/05/20 09:41:13;;;;;;;4.85;2.00;;;21.30;61.20;;;;;;5016208;28;20416;-79
2022/05/20 09:43:43;;;;;;;4.40;1.90;;;21.20;61.90;;;;;;5000510;28;20053;-79
2022/05/20 09:46:45;;;;;;;5.22;1.75;;;21.10;62.70;;;;;;5033331;28;20041;-80
2022/05/20 09:49:25;;;;;;;11.02;2.03;;;20.90;62.30;;;;;;5014908;28;20042;-79
2022/05/20 09:51:57;;;;;;;8.30;2.35;;;20.80;62.50;;;;;;5033787;28;20490;-79
2022/05/20 09:54:36;;;;;;;5.53;1.83;;;20.50;63.10;;;;;;5033430;28;20025;-79
2022/05/20 09:57:21;;;;;;;12.48;3.50;;;20.40;63.30;;;;;;5033484;28;20023;-79
2022/05/20 10:00:05;;;;;;;6.97;2.35;;;20.20;63.80;;;;;;5015531;28;20117;-79
2022/05/20 10:02:57;;;;;;;10.73;3.05;;;20.10;64.40;;;;;;5033824;28;20033;-79
2022/05/20 10:05:29;;;;;;;8.13;1.95;;;20.10;62.60;;;;;;5032218;28;20064;-79
2022/05/20 10:08:12;;;;;;;7.78;2.05;;;20.50;62.90;;;;;;5041832;28;20360;-79
2022/05/20 10:11:03;;;;;;;11.52;2.20;;;20.80;62.00;;;;;;5038396;28;20029;-79
2022/05/20 10:13:41;;;;;;;4.78;1.92;;;21.30;60.50;;;;;;5029725;28;20037;-80
2022/05/20 10:16:28;;;;;;;5.50;1.60;;;21.50;57.90;;;;;;5050440;28;20048;-79
2022/05/20 10:19:15;;;;;;;8.43;1.90;;;21.60;58.20;;;;;;5049224;28;20033;-79
2022/05/20 10:21:59;;;;;;;8.95;1.63;;;21.70;57.30;;;;;;5043822;28;20030;-80
2022/05/20 10:24:52;;;;;;;7.60;1.80;;;21.30;56.80;;;;;;5015438;28;20033;-77
2022/05/20 10:27:30;;;;;;;6.22;2.03;;;21.30;57.90;;;;;;5056687;28;20033;-78
2022/05/20 10:33:04;;;;;;;8.30;1.52;;;21.50;57.50;;;;;;5051072;28;20044;-80
2022/05/20 10:35:52;;;;;;;10.75;1.60;;;21.70;55.90;;;;;;5055978;28;20044;-80
2022/05/20 10:38:30;;;;;;;9.18;1.85;;;22.00;56.70;;;;;;5033318;28;20025;-78
2022/05/20 10:41:23;;;;;;;5.53;1.50;;;22.00;56.90;;;;;;5034430;28;20036;-77
2022/05/20 10:50:20;;;;;;;3.50;0.82;;;23.00;51.20;;;;;;5033342;28;20048;-82
2022/05/20 10:53:20;;;;;;;3.50;0.82;;;22.80;51.00;;;;;;4991061;28;20030;-79
2022/05/20 10:56:15;;;;;;;5.20;1.33;;;22.90;53.40;;;;;;5033193;28;20088;-79
2022/05/20 10:58:59;;;;;;;8.43;1.20;;;23.00;51.40;;;;;;5006896;28;20510;-81
2022/05/20 11:01:33;;;;;;;7.53;1.40;;;22.80;50.50;;;;;;5049732;28;20629;-78
2022/05/20 11:04:18;;;;;;;5.50;1.00;;;22.90;49.80;;;;;;5033101;28;20021;-80
2022/05/20 11:07:11;;;;;;;6.18;0.88;;;22.70;51.30;;;;;;5031155;28;20026;-82
2022/05/20 11:10:14;;;;;;;4.97;1.08;;;22.50;52.10;;;;;;5039180;28;20025;-81
2022/05/20 11:12:54;;;;;;;9.13;1.52;;;22.20;52.30;;;;;;5050977;28;20040;-80
2022/05/20 11:15:57;;;;;;;7.85;1.23;;;22.60;51.90;;;;;;5050803;28;20047;-80
2022/05/20 11:18:46;;;;;;;7.05;1.00;;;22.80;51.90;;;;;;5049747;28;20033;-80
2022/05/20 11:21:18;;;;;;;7.05;1.23;;;22.90;50.40;;;;;;5049217;28;20490;-81
2022/05/20 11:23:48;;;;;;;9.68;1.15;;;22.80;51.40;;;;;;5049887;28;20071;-81
2022/05/20 11:26:20;;;;;;;6.00;1.08;;;23.10;51.00;;;;;;5053590;28;20563;-81
2022/05/20 11:28:45;;;;;;;4.53;0.93;;;23.00;51.80;;;;;;5037473;28;20711;-80
2022/05/20 11:31:44;;;;;;;6.55;1.25;;;22.90;51.20;;;;;;5033481;28;20025;-81
2022/05/20 11:34:35;;;;;;;11.30;1.08;;;22.70;51.80;;;;;;5051264;28;20116;-81
2022/05/20 11:37:13;;;;;;;5.45;1.27;;;22.70;52.10;;;;;;5028438;28;20033;-81
2022/05/20 11:39:53;;;;;;;4.75;1.52;;;22.60;51.90;;;;;;5072267;28;20032;-81
2022/05/20 11:42:40;;;;;;;9.02;1.98;;;22.60;52.40;;;;;;5058097;28;20070;-81
2022/05/20 11:45:37;;;;;;;5.22;1.33;;;22.40;51.80;;;;;;5050744;28;20033;-81
2022/05/20 11:48:12;;;;;;;7.50;1.83;;;22.30;51.30;;;;;;5019371;28;20487;-81
2022/05/20 11:50:51;;;;;;;4.95;1.35;;;22.40;52.50;;;;;;5033722;28;20072;-82
2022/05/20 11:53:34;;;;;;;5.87;1.50;;;22.20;51.60;;;;;;5017634;28;20113;-82
2022/05/20 11:56:08;;;;;;;8.80;1.38;;;22.30;52.90;;;;;;5036344;28;20053;-81
2022/05/20 11:58:45;;;;;;;10.95;1.67;;;22.40;52.50;;;;;;5035515;28;20542;-80
2022/05/20 12:01:12;;;;;;;9.63;1.77;;;22.30;50.90;;;;;;5044629;28;20496;-80
2022/05/20 12:06:26;;;;;;;4.40;1.25;;;22.30;52.60;;;;;;5036087;28;20548;-80
2022/05/20 12:09:00;;;;;;;4.88;0.88;;;22.10;50.30;;;;;;5035363;28;20243;-79
2022/05/20 12:11:37;;;;;;;5.72;1.27;;;22.30;51.10;;;;;;5043987;28;20067;-80
2022/05/20 12:14:19;;;;;;;4.20;1.60;;;22.30;50.90;;;;;;5033277;28;20051;-79
2022/05/20 12:17:01;;;;;;;7.32;1.38;;;22.50;50.30;;;;;;5038722;28;20094;-80
2022/05/20 12:25:26;;;;;;;7.15;1.33;;;22.30;51.20;;;;;;5041057;28;20063;-80
2022/05/20 12:28:04;;;;;;;8.05;1.55;;;22.60;50.90;;;;;;5044396;28;20021;-80
2022/05/20 12:30:45;;;;;;;7.68;1.30;;;22.80;51.10;;;;;;5049902;28;20052;-80
2022/05/20 12:33:25;;;;;;;8.82;1.10;;;22.60;49.30;;;;;;5024735;28;20083;-79
2022/05/20 12:36:17;;;;;;;7.72;1.10;;;22.60;48.80;;;;;;5050523;28;20036;-80
2022/05/20 12:38:42;;;;;;;5.97;0.85;;;22.50;49.00;;;;;;5038542;28;20030;-80
2022/05/20 12:41:19;;;;;;;5.88;1.45;;;22.80;50.00;;;;;;5035020;28;20032;-80
2022/05/20 12:43:50;;;;;;;4.82;0.80;;;22.70;48.80;;;;;;5034734;28;20072;-80
2022/05/20 12:46:46;;;;;;;5.45;1.10;;;22.70;49.40;;;;;;5016964;28;20074;-81
2022/05/20 12:49:12;;;;;;;4.97;1.10;;;22.60;48.50;;;;;;5016602;28;20052;-80
2022/05/20 12:51:45;;;;;;;7.28;1.08;;;22.90;48.00;;;;;;5050111;28;20028;-80
2022/05/20 12:54:24;;;;;;;9.05;1.40;;;23.00;49.50;;;;;;5054883;28;20033;-80
2022/05/20 12:57:07;;;;;;;5.03;1.10;;;23.20;49.30;;;;;;5034765;28;20033;-80
2022/05/20 12:59:33;;;;;;;7.90;1.05;;;23.30;47.10;;;;;;5053720;28;20509;-80
2022/05/20 13:02:05;;;;;;;2.92;0.55;;;23.40;48.30;;;;;;5054407;28;20037;-80
2022/05/20 13:04:37;;;;;;;3.60;0.88;;;23.40;47.80;;;;;;5060449;28;20074;-80
2022/05/20 13:07:05;;;;;;;7.65;1.05;;;23.40;46.80;;;;;;5054575;28;20024;-80
2022/05/20 13:09:42;;;;;;;5.47;1.00;;;23.50;47.30;;;;;;5032897;28;20024;-80
2022/05/20 13:12:14;;;;;;;3.55;0.70;;;23.70;46.80;;;;;;5042708;28;20087;-81
2022/05/20 13:14:40;;;;;;;3.53;0.68;;;23.80;47.50;;;;;;5034175;28;20052;-81
2022/05/20 13:17:08;;;;;;;5.75;0.80;;;23.80;46.40;;;;;;5016320;28;20475;-80
2022/05/20 13:19:46;;;;;;;4.00;0.90;;;23.60;44.80;;;;;;5032755;28;20061;-80
2022/05/20 13:22:20;;;;;;;5.07;0.60;;;23.50;46.00;;;;;;5053872;28;20017;-80
2022/05/20 13:25:06;;;;;;;6.22;0.80;;;23.30;45.40;;;;;;5053977;28;20032;-80
2022/05/20 13:27:32;;;;;;;2.58;0.60;;;23.40;44.70;;;;;;5038105;28;20029;-81
2022/05/20 13:30:21;;;;;;;4.80;0.80;;;23.40;45.10;;;;;;5034793;28;20033;-81
2022/05/20 13:32:46;;;;;;;2.50;0.65;;;23.60;44.20;;;;;;5033936;28;20499;-85
2022/05/20 13:35:12;;;;;;;3.50;1.40;;;23.70;44.90;;;;;;5015973;28;20101;-86
2022/05/20 13:37:46;;;;;;;5.57;0.70;;;23.80;45.00;;;;;;5033772;28;20037;-86
2022/05/20 13:40:14;;;;;;;2.78;0.75;;;23.70;45.60;;;;;;5033539;28;20036;-85
2022/05/20 13:42:54;;;;;;;1.55;0.50;;;23.80;45.10;;;;;;5033844;28;20550;-85
2022/05/20 13:49:12;;;;;;;2.42;0.63;;;23.70;44.70;;;;;;5033766;28;20620;-85
2022/05/20 13:51:04;;;;;;;3.30;0.80;;;23.50;44.60;;;;;;5034222;28;20032;-85
2022/05/20 13:53:32;;;;;;;4.57;0.73;;;23.40;45.80;;;;;;5033710;28;20056;-86
2022/05/20 13:55:58;;;;;;;2.33;0.60;;;23.30;44.80;;;;;;5035296;28;20157;-85
2022/05/20 13:58:24;;;;;;;6.47;0.98;;;23.40;44.70;;;;;;5053273;28;20067;-85
2022/05/20 14:00:51;;;;;;;2.35;0.75;;;23.30;45.10;;;;;;5040462;28;20542;-86
2022/05/20 14:03:21;;;;;;;4.13;0.80;;;23.30;45.80;;;;;;5015511;28;20048;-85